createdAt,value
2022-10-04T00:00:26.416Z,99.90
2022-10-04T00:03:03.598Z,99.90
2022-10-04T00:05:31.756Z,99.90
2022-10-04T00:08:06.750Z,99.90
2022-10-04T00:10:34.530Z,99.90
2022-10-04T00:13:05.998Z,99.90
2022-10-04T00:15:37.730Z,99.90
2022-10-04T00:18:16.381Z,99.90
2022-10-04T00:20:53.247Z,99.90
2022-10-04T00:23:29.992Z,99.90
2022-10-04T00:26:04.483Z,99.90
2022-10-04T00:28:43.812Z,99.90
2022-10-04T00:31:22.642Z,99.90
2022-10-04T00:33:53.627Z,99.90
2022-10-04T00:36:26.179Z,99.90
2022-10-04T00:39:02.514Z,99.90
2022-10-04T00:41:34.395Z,99.90
2022-10-04T00:44:02.523Z,99.90
2022-10-04T00:46:31.240Z,99.90
2022-10-04T00:49:06.039Z,99.90
2022-10-04T00:51:42.097Z,99.90
2022-10-04T00:54:12.934Z,99.90
2022-10-04T00:56:51.581Z,99.90
2022-10-04T00:59:30.249Z,99.90
2022-10-04T01:02:05.025Z,99.90
2022-10-04T01:04:46.076Z,99.90
2022-10-04T01:07:15.531Z,99.90
2022-10-04T01:09:50.809Z,99.90
2022-10-04T01:12:33.343Z,99.90
2022-10-04T01:15:23.354Z,99.90
2022-10-04T01:18:16.403Z,99.90
2022-10-04T01:20:59.699Z,99.90
2022-10-04T01:23:46.173Z,99.90
2022-10-04T01:26:32.602Z,99.90
2022-10-04T01:29:05.830Z,99.90
2022-10-04T01:31:35.007Z,99.90
2022-10-04T01:34:02.789Z,99.90
2022-10-04T01:36:29.734Z,99.90
2022-10-04T01:38:56.869Z,99.90
2022-10-04T01:41:48.359Z,99.90
2022-10-04T01:44:38.326Z,99.90
2022-10-04T01:47:10.065Z,99.90
2022-10-04T01:49:39.361Z,99.90
2022-10-04T01:52:15.665Z,99.90
2022-10-04T01:54:50.512Z,99.90
2022-10-04T01:57:19.260Z,99.90
2022-10-04T01:59:57.536Z,99.90
2022-10-04T02:02:34.298Z,99.90
2022-10-04T02:05:03.937Z,99.90
2022-10-04T02:07:33.695Z,99.90
2022-10-04T02:10:06.352Z,99.90
2022-10-04T02:12:34.868Z,99.90
2022-10-04T02:15:03.788Z,99.90
2022-10-04T02:17:33.468Z,99.90
2022-10-04T02:20:01.548Z,99.90
2022-10-04T02:22:28.813Z,99.90
2022-10-04T02:24:57.749Z,99.90
2022-10-04T02:27:30.046Z,99.90
2022-10-04T02:30:07.500Z,99.90
2022-10-04T02:32:53.164Z,99.90
2022-10-04T02:35:20.658Z,99.90
2022-10-04T02:37:53.875Z,99.90
2022-10-04T02:40:27.164Z,99.90
2022-10-04T02:43:03.284Z,99.90
2022-10-04T02:45:57.433Z,99.90
2022-10-04T02:48:36.755Z,99.90
2022-10-04T02:51:19.523Z,99.90
2022-10-04T02:54:03.449Z,99.90
2022-10-04T02:56:32.394Z,99.90
2022-10-04T02:59:04.667Z,99.90
2022-10-04T03:01:57.960Z,99.90
2022-10-04T03:04:39.194Z,99.90
2022-10-04T03:07:08.634Z,99.90
2022-10-04T03:09:37.942Z,99.90
2022-10-04T03:12:06.061Z,99.90
2022-10-04T03:14:33.919Z,99.90
2022-10-04T03:17:04.165Z,99.90
2022-10-04T03:19:32.953Z,99.90
2022-10-04T03:22:06.920Z,99.80
2022-10-04T03:24:55.811Z,99.70
2022-10-04T03:27:31.466Z,99.50
2022-10-04T03:29:59.626Z,99.50
2022-10-04T03:32:30.520Z,99.40
2022-10-04T03:35:00.478Z,99.30
2022-10-04T03:37:30.609Z,99.20
2022-10-04T03:39:58.799Z,99.20
2022-10-04T03:42:28.777Z,99.10
2022-10-04T03:45:00.949Z,99.00
2022-10-04T03:47:38.064Z,99.00
2022-10-04T03:50:29.599Z,99.10
2022-10-04T03:53:06.089Z,99.00
2022-10-04T03:55:36.606Z,99.00
2022-10-04T03:58:03.479Z,99.00
2022-10-04T04:00:30.577Z,99.00
2022-10-04T04:03:00.658Z,99.20
2022-10-04T04:05:32.960Z,99.20
2022-10-04T04:08:39.672Z,99.20
2022-10-04T04:11:11.362Z,99.10
2022-10-04T04:13:52.483Z,99.10
2022-10-04T04:16:21.701Z,98.90
2022-10-04T04:18:50.036Z,98.90
2022-10-04T04:21:20.274Z,99.00
2022-10-04T04:24:13.590Z,99.00
2022-10-04T04:26:50.042Z,98.90
2022-10-04T04:29:41.996Z,99.00
2022-10-04T04:32:30.097Z,99.00
2022-10-04T04:35:10.276Z,99.00
2022-10-04T04:37:38.480Z,99.10
2022-10-04T04:40:12.314Z,99.00
2022-10-04T04:42:39.097Z,98.90
2022-10-04T04:45:25.730Z,98.90
2022-10-04T04:47:56.273Z,98.90
2022-10-04T04:50:36.274Z,99.10
2022-10-04T04:53:16.086Z,99.10
2022-10-04T04:56:03.308Z,99.20
2022-10-04T04:58:33.252Z,99.20
2022-10-04T05:01:04.327Z,99.20
2022-10-04T05:03:31.220Z,99.20
2022-10-04T05:06:00.899Z,99.40
2022-10-04T05:08:37.183Z,99.40
2022-10-04T05:11:09.900Z,99.30
2022-10-04T05:14:00.676Z,99.30
2022-10-04T05:16:54.568Z,99.40
2022-10-04T05:19:32.089Z,99.50
2022-10-04T05:22:02.510Z,99.60
2022-10-04T05:24:34.930Z,99.70
2022-10-04T05:27:12.921Z,99.80
2022-10-04T05:29:56.268Z,99.80
2022-10-04T05:32:29.069Z,99.80
2022-10-04T05:34:55.864Z,99.90
2022-10-04T05:37:25.614Z,99.90
2022-10-04T05:40:06.858Z,99.90
2022-10-04T05:42:45.207Z,99.90
2022-10-04T05:45:23.391Z,99.90
2022-10-04T05:47:53.575Z,99.90
2022-10-04T05:50:26.257Z,99.90
2022-10-04T05:52:53.357Z,99.90
2022-10-04T05:55:44.040Z,99.60
2022-10-04T05:58:48.477Z,99.40
2022-10-04T06:01:33.600Z,99.00
2022-10-04T06:04:21.815Z,98.90
2022-10-04T06:07:19.617Z,98.90
2022-10-04T06:10:08.124Z,98.70
2022-10-04T06:12:44.438Z,99.10
2022-10-04T06:15:21.125Z,98.70
2022-10-04T06:18:10.924Z,98.50
2022-10-04T06:20:46.515Z,98.50
2022-10-04T06:23:18.612Z,98.20
2022-10-04T06:25:55.480Z,98.10
2022-10-04T06:28:25.192Z,97.70
2022-10-04T06:31:25.872Z,97.50
2022-10-04T06:34:31.650Z,97.20
2022-10-04T06:37:19.688Z,97.00
2022-10-04T06:40:14.247Z,96.80
2022-10-04T06:43:01.965Z,96.50
2022-10-04T06:45:40.767Z,95.80
2022-10-04T06:48:41.572Z,95.60
2022-10-04T06:51:47.948Z,95.30
2022-10-04T06:54:32.398Z,95.20
2022-10-04T06:57:32.326Z,95.30
2022-10-04T07:00:05.002Z,95.20
2022-10-04T07:02:54.427Z,95.10
2022-10-04T07:05:48.453Z,95.10
2022-10-04T07:08:36.926Z,95.40
2022-10-04T07:11:13.734Z,95.70
2022-10-04T07:14:01.762Z,95.60
2022-10-04T07:16:37.258Z,95.60
2022-10-04T07:19:35.499Z,95.70
2022-10-04T07:22:08.441Z,95.60
2022-10-04T07:25:17.149Z,95.20
2022-10-04T07:28:28.496Z,95.30
2022-10-04T07:30:58.069Z,95.10
2022-10-04T07:33:29.087Z,95.40
2022-10-04T07:36:28.145Z,95.40
2022-10-04T07:39:06.786Z,94.90
2022-10-04T07:41:46.467Z,94.60
2022-10-04T07:44:36.529Z,94.20
2022-10-04T07:47:20.424Z,93.80
2022-10-04T07:49:51.037Z,93.40
2022-10-04T07:52:38.199Z,93.00
2022-10-04T07:55:49.174Z,92.70
2022-10-04T07:59:00.442Z,92.10
2022-10-04T08:02:01.315Z,92.00
2022-10-04T08:04:37.434Z,91.90
2022-10-04T08:07:17.935Z,91.50
2022-10-04T08:10:29.102Z,91.40
2022-10-04T08:13:15.507Z,90.90
2022-10-04T08:15:45.565Z,90.90
2022-10-04T08:18:30.391Z,91.00
2022-10-04T08:21:06.588Z,91.20
2022-10-04T08:23:52.234Z,91.20
2022-10-04T08:26:30.135Z,91.10
2022-10-04T08:29:41.189Z,90.90
2022-10-04T08:32:07.882Z,91.00
2022-10-04T08:35:06.006Z,90.80
2022-10-04T08:37:41.518Z,90.70
2022-10-04T08:40:13.220Z,90.80
2022-10-04T08:43:29.110Z,90.70
2022-10-04T08:46:20.401Z,90.80
2022-10-04T08:49:08.780Z,90.70
2022-10-04T08:51:38.357Z,90.40
2022-10-04T08:54:13.949Z,90.10
2022-10-04T08:56:57.949Z,90.10
2022-10-04T08:59:49.415Z,90.00
2022-10-04T09:02:26.791Z,90.10
2022-10-04T09:04:56.840Z,90.00
2022-10-04T09:07:26.341Z,90.00
2022-10-04T09:10:14.590Z,90.10
2022-10-04T09:12:52.316Z,89.90
2022-10-04T09:15:45.728Z,90.00
2022-10-04T09:18:12.475Z,90.00
2022-10-04T09:21:00.105Z,89.10
2022-10-04T09:23:34.203Z,89.00
2022-10-04T09:26:43.282Z,88.80
2022-10-04T09:29:27.387Z,88.90
2022-10-04T09:32:09.237Z,88.80
2022-10-04T09:34:55.526Z,88.40
2022-10-04T09:37:46.513Z,88.40
2022-10-04T09:40:28.736Z,88.40
2022-10-04T09:43:17.566Z,87.30
2022-10-04T09:45:47.135Z,87.60
2022-10-04T09:48:37.000Z,87.90
2022-10-04T09:51:35.843Z,87.10
2022-10-04T09:54:28.103Z,87.40
2022-10-04T09:57:06.774Z,86.50
2022-10-04T09:59:53.962Z,86.70
2022-10-04T10:02:51.293Z,86.30
2022-10-04T10:05:43.763Z,86.30
2022-10-04T10:08:33.577Z,86.40
2022-10-04T10:11:39.606Z,85.90
2022-10-04T10:14:35.691Z,85.50
2022-10-04T10:17:15.283Z,86.10
2022-10-04T10:20:00.905Z,86.20
2022-10-04T10:23:04.270Z,86.20
2022-10-04T10:25:59.271Z,86.50
2022-10-04T10:28:40.684Z,86.70
2022-10-04T10:31:51.249Z,86.20
2022-10-04T10:34:35.848Z,86.00
2022-10-04T10:37:10.531Z,86.10
2022-10-04T10:39:46.207Z,86.20
2022-10-04T10:42:22.136Z,86.00
2022-10-04T10:44:57.665Z,86.10
2022-10-04T10:47:36.600Z,85.40
2022-10-04T10:50:58.594Z,85.10
2022-10-04T10:53:45.266Z,84.70
2022-10-04T10:56:44.307Z,84.00
2022-10-04T10:59:37.974Z,84.50
2022-10-04T11:02:48.916Z,85.30
2022-10-04T11:05:58.058Z,84.50
2022-10-04T11:09:11.363Z,84.30
2022-10-04T11:11:44.163Z,83.90
2022-10-04T11:14:48.576Z,83.60
2022-10-04T11:17:44.828Z,83.40
2022-10-04T11:20:59.488Z,83.00
2022-10-04T11:23:57.298Z,83.00
2022-10-04T11:26:40.084Z,82.40
2022-10-04T11:29:21.773Z,81.50
2022-10-04T11:32:00.347Z,81.50
2022-10-04T11:35:08.797Z,80.80
2022-10-04T11:38:12.073Z,81.40
2022-10-04T11:41:03.849Z,82.50
2022-10-04T11:43:57.985Z,82.30
2022-10-04T11:47:02.514Z,82.50
2022-10-04T11:49:57.269Z,82.00
2022-10-04T11:52:49.991Z,81.90
2022-10-04T11:55:54.121Z,81.90
2022-10-04T11:58:54.005Z,82.70
2022-10-04T12:01:30.403Z,83.00
2022-10-04T12:04:27.240Z,84.10
2022-10-04T12:07:31.527Z,83.10
2022-10-04T12:10:30.030Z,83.10
2022-10-04T12:13:05.856Z,83.10
2022-10-04T12:15:55.729Z,83.00
2022-10-04T12:18:26.496Z,81.70
2022-10-04T12:21:12.612Z,82.20
2022-10-04T12:23:57.472Z,82.20
2022-10-04T12:27:02.864Z,81.40
2022-10-04T12:30:00.646Z,80.70
2022-10-04T12:32:57.755Z,81.30
2022-10-04T12:35:49.112Z,81.10
2022-10-04T12:38:33.068Z,81.00
2022-10-04T12:41:11.471Z,80.40
2022-10-04T12:44:00.352Z,80.70
2022-10-04T12:46:38.396Z,80.10
2022-10-04T12:49:25.929Z,80.80
2022-10-04T12:52:07.505Z,81.10
2022-10-04T12:54:52.086Z,81.50
2022-10-04T12:57:27.713Z,80.50
2022-10-04T13:00:06.587Z,80.80
2022-10-04T13:02:51.868Z,80.40
2022-10-04T13:05:42.647Z,79.00
2022-10-04T13:08:21.407Z,80.10
2022-10-04T13:11:11.034Z,80.30
2022-10-04T13:13:48.500Z,80.70
2022-10-04T13:19:50.458Z,80.30
2022-10-04T13:22:55.366Z,80.90
2022-10-04T13:25:19.133Z,81.30
2022-10-04T13:27:52.711Z,78.80
2022-10-04T13:30:36.634Z,78.60
2022-10-04T13:33:29.930Z,76.50
2022-10-04T13:36:11.351Z,79.60
2022-10-04T13:38:56.234Z,78.70
2022-10-04T13:41:50.343Z,78.00
2022-10-04T13:44:35.261Z,76.80
2022-10-04T13:47:27.748Z,77.40
2022-10-04T13:49:57.473Z,77.70
2022-10-04T13:53:08.881Z,76.20
2022-10-04T13:56:19.911Z,77.50
2022-10-04T13:59:29.766Z,78.70
2022-10-04T14:02:47.639Z,77.20
2022-10-04T14:05:29.745Z,77.60
2022-10-04T14:08:36.726Z,77.70
2022-10-04T14:11:25.047Z,77.20
2022-10-04T14:14:34.767Z,77.40
2022-10-04T14:17:35.112Z,79.10
2022-10-04T14:20:31.310Z,77.60
2022-10-04T14:23:56.011Z,78.30
2022-10-04T14:26:25.193Z,78.70
2022-10-04T14:29:12.886Z,78.60
2022-10-04T14:32:03.474Z,77.80
2022-10-04T14:35:02.733Z,77.50
2022-10-04T14:37:57.400Z,78.50
2022-10-04T14:40:28.093Z,79.10
2022-10-04T14:42:54.793Z,79.10
2022-10-04T14:45:39.246Z,79.00
2022-10-04T14:48:39.802Z,79.10
2022-10-04T14:51:25.232Z,79.70
2022-10-04T14:54:08.134Z,79.20
2022-10-04T14:57:20.991Z,79.30
2022-10-04T15:00:18.769Z,80.30
2022-10-04T15:03:15.173Z,80.60
2022-10-04T15:05:47.702Z,80.30
2022-10-04T15:08:26.312Z,80.50
2022-10-04T15:11:03.281Z,80.70
2022-10-04T15:13:59.220Z,79.80
2022-10-04T15:16:53.094Z,79.10
2022-10-04T15:19:26.092Z,79.20
2022-10-04T15:21:55.795Z,79.40
2022-10-04T15:24:30.056Z,78.10
2022-10-04T15:27:18.227Z,76.90
2022-10-04T15:29:58.059Z,77.40
2022-10-04T15:32:47.893Z,77.10
2022-10-04T15:35:21.109Z,78.20
2022-10-04T15:38:02.375Z,78.10
2022-10-04T15:40:58.081Z,79.00
2022-10-04T15:44:05.883Z,80.00
2022-10-04T15:47:14.854Z,79.20
2022-10-04T15:49:59.845Z,80.20
2022-10-04T15:52:41.827Z,80.40
2022-10-04T15:55:36.666Z,80.40
2022-10-04T15:58:17.235Z,79.90
2022-10-04T16:00:53.127Z,80.10
2022-10-04T16:04:19.062Z,79.80
2022-10-04T16:06:54.048Z,80.00
2022-10-04T16:09:42.802Z,80.30
2022-10-04T16:12:29.771Z,80.50
2022-10-04T16:15:32.952Z,81.10
2022-10-04T16:18:13.062Z,81.50
2022-10-04T16:21:15.315Z,82.20
2022-10-04T16:23:44.231Z,82.50
2022-10-04T16:26:16.049Z,83.00
2022-10-04T16:28:48.911Z,83.40
2022-10-04T16:31:21.543Z,83.80
2022-10-04T16:34:01.166Z,84.00
2022-10-04T16:36:44.670Z,84.30
2022-10-04T16:39:33.140Z,84.80
2022-10-04T16:42:03.921Z,85.10
2022-10-04T16:44:49.238Z,85.30
2022-10-04T16:47:32.065Z,86.00
2022-10-04T16:50:01.639Z,86.70
2022-10-04T16:52:38.857Z,86.90
2022-10-04T16:55:24.403Z,87.20
2022-10-04T16:58:28.702Z,87.50
2022-10-04T17:01:23.559Z,87.70
2022-10-04T17:04:03.968Z,88.00
2022-10-04T17:07:02.400Z,88.30
2022-10-04T17:09:40.533Z,88.50
2022-10-04T17:12:38.025Z,88.80
2022-10-04T17:15:26.635Z,89.00
2022-10-04T17:18:08.485Z,89.30
2022-10-04T17:20:41.203Z,89.60
2022-10-04T17:23:42.879Z,89.80
2022-10-04T17:26:29.676Z,90.00
2022-10-04T17:28:59.486Z,90.20
2022-10-04T17:31:32.424Z,90.40
2022-10-04T17:34:05.130Z,90.50
2022-10-04T17:36:56.727Z,90.60
2022-10-04T17:39:48.660Z,90.70
2022-10-04T17:43:00.588Z,90.80
2022-10-04T17:45:50.024Z,90.90
2022-10-04T17:48:42.364Z,91.10
2022-10-04T17:52:04.142Z,91.20
2022-10-04T17:55:01.618Z,91.40
2022-10-04T17:57:52.937Z,91.80
2022-10-04T18:00:24.921Z,92.00
2022-10-04T18:03:16.255Z,92.10
2022-10-04T18:05:43.621Z,92.10
2022-10-04T18:08:13.155Z,92.20
2022-10-04T18:10:52.869Z,92.30
2022-10-04T18:13:26.955Z,92.50
2022-10-04T18:16:18.623Z,92.60
2022-10-04T18:18:46.187Z,92.60
2022-10-04T18:21:15.985Z,92.70
2022-10-04T18:24:00.036Z,92.70
2022-10-04T18:26:29.905Z,92.80
2022-10-04T18:28:59.872Z,92.70
2022-10-04T18:31:37.498Z,92.70
2022-10-04T18:34:10.422Z,92.80
2022-10-04T18:36:58.496Z,92.80
2022-10-04T18:39:25.468Z,92.90
2022-10-04T18:42:01.302Z,92.90
2022-10-04T18:44:41.823Z,93.10
2022-10-04T18:47:25.253Z,93.10
2022-10-04T18:49:54.665Z,93.30
2022-10-04T18:52:34.510Z,93.50
2022-10-04T18:55:28.290Z,93.70
2022-10-04T18:58:28.907Z,93.80
2022-10-04T19:01:29.612Z,94.00
2022-10-04T19:04:39.987Z,94.00
2022-10-04T19:07:16.443Z,94.00
2022-10-04T19:10:34.933Z,94.10
2022-10-04T19:13:13.889Z,94.00
2022-10-04T19:16:11.167Z,94.00
2022-10-04T19:18:57.496Z,94.10
2022-10-04T19:21:42.801Z,94.10
2022-10-04T19:24:37.091Z,94.20
2022-10-04T19:27:25.336Z,94.30
2022-10-04T19:30:05.698Z,94.30
2022-10-04T19:32:38.239Z,94.30
2022-10-04T19:35:14.197Z,94.30
2022-10-04T19:37:54.766Z,94.30
2022-10-04T19:40:48.791Z,94.20
2022-10-04T19:43:31.744Z,94.20
2022-10-04T19:46:13.669Z,94.20
2022-10-04T19:48:52.392Z,94.10
2022-10-04T19:51:25.232Z,94.00
2022-10-04T19:53:59.422Z,93.80
2022-10-04T19:56:31.258Z,93.50
2022-10-04T19:59:12.440Z,93.50
2022-10-04T20:01:39.232Z,93.20
2022-10-04T20:04:35.383Z,93.00
2022-10-04T20:07:05.351Z,92.90
2022-10-04T20:09:41.078Z,92.80
2022-10-04T20:12:35.781Z,92.90
2022-10-04T20:15:17.681Z,92.80
2022-10-04T20:17:47.024Z,92.90
2022-10-04T20:20:17.392Z,92.80
2022-10-04T20:22:50.202Z,92.80
2022-10-04T20:25:45.644Z,92.70
2022-10-04T20:28:27.621Z,92.70
2022-10-04T20:30:56.533Z,92.70
2022-10-04T20:33:36.761Z,92.70
2022-10-04T20:36:09.183Z,92.80
2022-10-04T20:38:45.357Z,92.70
2022-10-04T20:41:50.268Z,92.50
2022-10-04T20:44:41.632Z,92.50
2022-10-04T20:47:38.220Z,92.50
2022-10-04T20:50:25.741Z,92.40
2022-10-04T20:52:57.090Z,92.40
2022-10-04T20:55:28.251Z,92.40
2022-10-04T20:57:57.757Z,92.30
2022-10-04T21:00:26.438Z,92.30
2022-10-04T21:03:16.861Z,92.20
2022-10-04T21:05:46.873Z,92.10
2022-10-04T21:08:24.717Z,92.10
2022-10-04T21:11:05.358Z,92.00
2022-10-04T21:13:43.816Z,92.10
2022-10-04T21:16:10.665Z,92.00
2022-10-04T21:18:37.653Z,92.00
2022-10-04T21:21:04.456Z,92.00
2022-10-04T21:23:35.532Z,92.10
2022-10-04T21:26:21.439Z,92.10
2022-10-04T21:28:52.717Z,92.20
2022-10-04T21:31:19.610Z,92.20
2022-10-04T21:33:46.367Z,92.30
2022-10-04T21:36:13.095Z,92.40
2022-10-04T21:38:40.123Z,92.50
2022-10-04T21:41:07.474Z,92.60
2022-10-04T21:43:34.437Z,92.60
2022-10-04T21:46:01.398Z,92.70
2022-10-04T21:48:28.422Z,92.70
2022-10-04T21:50:55.655Z,92.80
2022-10-04T21:53:22.753Z,92.90
2022-10-04T21:55:49.902Z,92.90
2022-10-04T21:58:16.937Z,93.00
2022-10-04T22:00:43.958Z,92.80
2022-10-04T22:03:10.820Z,92.70
2022-10-04T22:05:37.724Z,92.70
2022-10-04T22:08:04.645Z,92.50
2022-10-04T22:10:31.519Z,92.30
2022-10-04T22:12:58.376Z,92.20
2022-10-04T22:15:26.732Z,92.10
2022-10-04T22:17:53.730Z,92.00
2022-10-04T22:20:20.612Z,91.90
2022-10-04T22:22:47.676Z,91.90
2022-10-04T22:25:19.725Z,91.80
2022-10-04T22:27:47.173Z,91.80
2022-10-04T22:30:25.933Z,91.70
2022-10-04T22:32:55.583Z,91.80
2022-10-04T22:35:22.440Z,91.80
2022-10-04T22:37:49.611Z,91.80
2022-10-04T22:40:18.583Z,91.90
2022-10-04T22:42:46.210Z,91.90
2022-10-04T22:45:23.772Z,92.00
2022-10-04T22:47:51.697Z,92.00
2022-10-04T22:50:44.903Z,92.10
2022-10-04T22:53:16.085Z,92.20
2022-10-04T22:55:43.138Z,92.20
2022-10-04T22:58:17.062Z,92.30
2022-10-04T23:00:44.839Z,92.30
2022-10-04T23:03:31.602Z,92.30
2022-10-04T23:06:02.620Z,92.40
2022-10-04T23:08:30.161Z,92.40
2022-10-04T23:10:59.082Z,92.50
2022-10-04T23:13:27.036Z,92.50
2022-10-04T23:15:58.636Z,92.60
2022-10-04T23:18:27.274Z,92.60
2022-10-04T23:21:00.583Z,92.60
2022-10-04T23:23:30.524Z,92.70
2022-10-04T23:25:57.598Z,92.70
2022-10-04T23:28:24.772Z,92.80
2022-10-04T23:31:06.103Z,92.80
2022-10-04T23:33:32.853Z,92.80
2022-10-04T23:35:59.639Z,92.80
2022-10-04T23:38:26.523Z,92.90
2022-10-04T23:40:53.312Z,92.90
2022-10-04T23:43:25.248Z,92.90
2022-10-04T23:45:57.864Z,93.00
2022-10-04T23:48:27.159Z,93.00
2022-10-04T23:50:59.794Z,93.10
2022-10-04T23:53:28.426Z,93.10
2022-10-04T23:55:56.508Z,93.20
2022-10-04T23:58:25.987Z,93.10
